Time;durP1;ratioP1;P1;durP2;ratioP2;P2;SDS_P1;SDS_P2;PMS_P1;PMS_P2;Temp;Humidity;BMP_temperature;BMP_pressure;BME280_temperature;BME280_humidity;BME280_pressure;Samples;Min_cycle;Max_cycle;Signal;HPM_P1;HPM_P2
2021/09/26 00:00:43;;;;;;;12.85;7.68;;;16.00;99.90;;;;;;5055323;28;20025;-85
2021/09/26 00:03:09;;;;;;;11.25;7.43;;;16.00;99.90;;;;;;5055682;28;20070;-85
2021/09/26 00:05:35;;;;;;;11.65;8.15;;;16.00;99.90;;;;;;5055586;28;20052;-84
2021/09/26 00:08:00;;;;;;;11.20;7.07;;;16.00;99.90;;;;;;5055731;28;20024;-85
2021/09/26 00:10:26;;;;;;;11.23;7.32;;;16.00;99.90;;;;;;5055318;28;20444;-85
2021/09/26 00:12:52;;;;;;;12.43;7.28;;;15.90;99.90;;;;;;5055564;28;20034;-85
2021/09/26 00:15:20;;;;;;;8.82;6.70;;;15.90;99.90;;;;;;5073117;28;20036;-85
2021/09/26 00:17:46;;;;;;;8.88;6.93;;;15.90;99.90;;;;;;5055582;28;20106;-85
2021/09/26 00:20:13;;;;;;;10.88;7.10;;;15.90;99.90;;;;;;5054854;28;20116;-85
2021/09/26 00:22:39;;;;;;;9.88;6.95;;;15.90;99.90;;;;;;5055258;28;20039;-85
2021/09/26 00:25:05;;;;;;;8.98;6.72;;;15.90;99.90;;;;;;5055419;28;20028;-85
2021/09/26 00:27:31;;;;;;;11.93;7.80;;;15.90;99.90;;;;;;5072867;28;20025;-85
2021/09/26 00:29:57;;;;;;;11.55;6.95;;;15.80;99.90;;;;;;5054817;28;20031;-85
2021/09/26 00:32:23;;;;;;;11.68;7.03;;;15.80;99.90;;;;;;5055089;28;20085;-85
2021/09/26 00:34:48;;;;;;;12.18;7.45;;;15.80;99.90;;;;;;5055087;28;20044;-85
2021/09/26 00:37:15;;;;;;;9.40;6.70;;;15.70;99.90;;;;;;5055000;28;20025;-85
2021/09/26 00:39:40;;;;;;;8.98;6.82;;;15.70;99.90;;;;;;5054492;28;20016;-85
2021/09/26 00:42:07;;;;;;;10.02;6.72;;;15.70;99.90;;;;;;5054974;28;20508;-85
2021/09/26 00:44:33;;;;;;;10.45;7.20;;;15.70;99.90;;;;;;5072685;28;20028;-85
2021/09/26 00:46:58;;;;;;;9.80;7.15;;;15.70;99.90;;;;;;5054880;28;20029;-84
2021/09/26 00:49:25;;;;;;;9.77;7.00;;;15.70;99.90;;;;;;5054050;28;20389;-84
2021/09/26 00:51:52;;;;;;;9.68;6.82;;;15.70;99.90;;;;;;5072377;28;20389;-85
2021/09/26 00:54:20;;;;;;;9.30;6.45;;;15.70;99.90;;;;;;5072484;28;20036;-85
2021/09/26 00:56:47;;;;;;;10.65;7.78;;;15.70;99.90;;;;;;5072390;28;20055;-84
2021/09/26 00:59:14;;;;;;;10.32;6.70;;;15.70;99.90;;;;;;5071791;28;20086;-85
2021/09/26 01:01:40;;;;;;;10.18;6.47;;;15.60;99.90;;;;;;5056534;28;20025;-86
2021/09/26 01:04:06;;;;;;;11.68;7.18;;;15.70;99.90;;;;;;5075532;28;20043;-85
2021/09/26 01:06:56;;;;;;;7.45;6.07;;;15.70;99.90;;;;;;5055059;28;20021;-85
2021/09/26 01:09:34;;;;;;;11.50;6.35;;;15.60;99.90;;;;;;5054706;28;20090;-85
2021/09/26 01:12:08;;;;;;;9.52;6.65;;;15.60;99.90;;;;;;5072718;28;20048;-85
2021/09/26 01:14:43;;;;;;;10.13;6.55;;;15.60;99.90;;;;;;5073277;28;20092;-85
2021/09/26 01:17:29;;;;;;;9.90;6.70;;;15.60;99.90;;;;;;5055656;28;20109;-86
2021/09/26 01:20:01;;;;;;;10.05;6.75;;;15.60;99.90;;;;;;5072654;28;20043;-85
2021/09/26 01:22:49;;;;;;;11.60;7.10;;;15.50;99.90;;;;;;5072754;28;20027;-85
2021/09/26 01:25:52;;;;;;;10.07;7.03;;;15.50;99.90;;;;;;5073049;28;20020;-85
2021/09/26 01:28:30;;;;;;;10.35;6.72;;;15.50;99.90;;;;;;5072754;28;20277;-85
2021/09/26 01:31:10;;;;;;;11.20;6.88;;;15.50;99.90;;;;;;5054270;28;20028;-86
2021/09/26 01:33:55;;;;;;;9.80;6.55;;;15.50;99.90;;;;;;5054862;28;20020;-85
2021/09/26 01:36:30;;;;;;;10.88;7.22;;;15.50;99.90;;;;;;5054795;28;20567;-85
2021/09/26 01:39:13;;;;;;;10.55;6.55;;;15.40;99.90;;;;;;5054235;28;20546;-84
2021/09/26 01:42:06;;;;;;;11.95;7.03;;;15.50;99.90;;;;;;5054738;28;20516;-85
2021/09/26 01:44:39;;;;;;;9.93;6.63;;;15.50;99.90;;;;;;5072580;28;20100;-85
2021/09/26 01:47:09;;;;;;;9.80;6.32;;;15.40;99.90;;;;;;5054762;28;20106;-85
2021/09/26 01:49:45;;;;;;;8.18;5.80;;;15.50;99.90;;;;;;5054279;28;20021;-85
2021/09/26 01:52:16;;;;;;;10.80;5.80;;;15.50;99.90;;;;;;5071327;28;20403;-86
2021/09/26 01:54:43;;;;;;;9.20;5.78;;;15.50;99.90;;;;;;5072589;28;20020;-85
2021/09/26 01:57:09;;;;;;;9.60;5.90;;;15.50;99.90;;;;;;5055019;28;20051;-85
2021/09/26 01:59:35;;;;;;;8.13;5.60;;;15.50;99.90;;;;;;5053895;28;20108;-85
2021/09/26 02:02:02;;;;;;;6.93;4.82;;;15.50;99.90;;;;;;5053856;28;20024;-85
2021/09/26 02:04:29;;;;;;;8.88;5.50;;;15.50;99.90;;;;;;5053777;28;20496;-85
2021/09/26 02:06:54;;;;;;;7.63;5.35;;;15.50;99.90;;;;;;5053891;28;20087;-85
2021/09/26 02:09:21;;;;;;;7.55;5.57;;;15.50;99.90;;;;;;5053436;28;20092;-84
2021/09/26 02:11:47;;;;;;;8.18;5.20;;;15.50;99.90;;;;;;5053641;28;20047;-85
2021/09/26 02:14:14;;;;;;;8.57;5.72;;;15.50;99.90;;;;;;5070289;28;20032;-85
2021/09/26 02:16:40;;;;;;;8.52;5.43;;;15.50;99.90;;;;;;5054245;28;20024;-85
2021/09/26 02:19:07;;;;;;;6.57;5.07;;;15.50;99.90;;;;;;5074944;28;20024;-84
2021/09/26 02:21:34;;;;;;;7.63;4.97;;;15.50;99.90;;;;;;5057448;28;20028;-85
2021/09/26 02:24:01;;;;;;;7.38;5.40;;;15.50;99.90;;;;;;5075232;28;20485;-85
2021/09/26 02:26:28;;;;;;;8.52;5.53;;;15.50;99.90;;;;;;5075245;28;20020;-85
2021/09/26 02:28:55;;;;;;;7.97;5.32;;;15.50;99.90;;;;;;5074773;28;20017;-85
2021/09/26 02:31:21;;;;;;;10.00;5.40;;;15.60;99.90;;;;;;5075009;28;20013;-85
2021/09/26 02:33:47;;;;;;;7.63;5.65;;;15.50;99.90;;;;;;5057355;28;20027;-85
2021/09/26 02:36:14;;;;;;;8.45;5.38;;;15.50;99.90;;;;;;5079322;23;20040;-85
2021/09/26 02:38:40;;;;;;;7.13;4.95;;;15.50;99.90;;;;;;5056570;28;20056;-84
2021/09/26 02:41:19;;;;;;;10.95;5.75;;;15.50;99.90;;;;;;5074607;28;20354;-85
2021/09/26 02:43:54;;;;;;;7.90;5.40;;;15.60;99.90;;;;;;5075452;28;20016;-85
2021/09/26 02:46:29;;;;;;;8.52;5.43;;;15.60;99.90;;;;;;5057273;28;20028;-85
2021/09/26 02:48:57;;;;;;;7.70;5.07;;;15.60;99.90;;;;;;5056541;28;20468;-84
2021/09/26 02:51:24;;;;;;;6.18;4.32;;;15.60;99.90;;;;;;5057207;28;20025;-85
2021/09/26 02:53:51;;;;;;;8.02;5.15;;;15.60;99.90;;;;;;5057262;28;20111;-85
2021/09/26 02:56:18;;;;;;;7.03;4.82;;;15.60;99.90;;;;;;5057168;28;20016;-85
2021/09/26 02:58:44;;;;;;;9.07;5.28;;;15.70;99.90;;;;;;5057050;28;20024;-84
2021/09/26 03:01:10;;;;;;;7.82;4.90;;;15.70;99.90;;;;;;5056725;28;20028;-85
2021/09/26 03:03:35;;;;;;;6.43;4.68;;;15.70;99.90;;;;;;5057079;28;20032;-85
2021/09/26 03:06:01;;;;;;;6.88;5.13;;;15.70;99.90;;;;;;5056946;28;20115;-85
2021/09/26 03:08:27;;;;;;;7.85;5.30;;;15.70;99.90;;;;;;5056729;28;20393;-85
2021/09/26 03:10:59;;;;;;;8.15;5.40;;;15.70;99.90;;;;;;5074147;28;20034;-85
2021/09/26 03:13:26;;;;;;;7.60;5.35;;;15.70;99.90;;;;;;5074499;28;20074;-85
2021/09/26 03:15:51;;;;;;;8.40;5.47;;;15.70;99.90;;;;;;5056929;28;20567;-85
2021/09/26 03:18:17;;;;;;;8.02;5.32;;;15.70;99.90;;;;;;5056505;28;20039;-85
2021/09/26 03:20:43;;;;;;;7.10;5.13;;;15.70;99.90;;;;;;5056109;28;20055;-84
2021/09/26 03:23:09;;;;;;;8.15;5.40;;;15.70;99.90;;;;;;5056569;28;20082;-85
2021/09/26 03:25:35;;;;;;;8.52;5.68;;;15.80;99.90;;;;;;5074738;28;20017;-85
2021/09/26 03:28:01;;;;;;;10.18;5.60;;;15.80;99.90;;;;;;5073697;28;20086;-85
2021/09/26 03:30:26;;;;;;;7.35;5.20;;;15.90;99.90;;;;;;5055606;28;20119;-85
2021/09/26 03:32:52;;;;;;;7.78;5.20;;;15.90;99.90;;;;;;5056265;28;20041;-85
2021/09/26 03:35:18;;;;;;;7.65;5.78;;;15.90;99.90;;;;;;5056453;28;20043;-85
2021/09/26 03:37:44;;;;;;;7.13;5.15;;;15.90;99.90;;;;;;5056246;28;20123;-85
2021/09/26 03:40:11;;;;;;;6.50;4.93;;;15.90;99.90;;;;;;5055927;28;20116;-85
2021/09/26 03:42:38;;;;;;;8.02;5.60;;;16.00;99.90;;;;;;5056508;28;20058;-85
2021/09/26 03:45:04;;;;;;;6.75;4.85;;;16.00;99.90;;;;;;5056552;28;20029;-85
2021/09/26 03:47:30;;;;;;;8.18;5.68;;;16.00;99.90;;;;;;5074423;28;20036;-85
2021/09/26 03:49:56;;;;;;;8.75;5.40;;;16.00;99.90;;;;;;5055754;28;20036;-85
2021/09/26 03:52:22;;;;;;;9.48;6.07;;;16.00;99.90;;;;;;5055844;28;20028;-85
2021/09/26 03:54:50;;;;;;;8.18;5.32;;;16.10;99.90;;;;;;5074121;28;20032;-85
2021/09/26 03:57:17;;;;;;;8.65;5.43;;;16.10;99.90;;;;;;5073794;28;20024;-85
2021/09/26 03:59:42;;;;;;;7.95;5.38;;;16.10;99.90;;;;;;5055471;28;20033;-85
2021/09/26 04:02:09;;;;;;;8.27;5.35;;;16.10;99.90;;;;;;5073760;28;20544;-85
2021/09/26 04:04:35;;;;;;;7.43;5.28;;;16.10;99.90;;;;;;5073738;28;20054;-85
2021/09/26 04:07:01;;;;;;;6.97;5.13;;;16.10;99.90;;;;;;5056005;28;20425;-85
2021/09/26 04:09:26;;;;;;;7.78;5.18;;;16.20;99.90;;;;;;5055191;28;20028;-85
2021/09/26 04:11:52;;;;;;;8.50;5.80;;;16.20;99.90;;;;;;5055577;28;20036;-85
2021/09/26 04:14:18;;;;;;;8.07;5.63;;;16.20;99.90;;;;;;5073699;28;20035;-85
2021/09/26 04:16:43;;;;;;;7.40;5.15;;;16.30;99.90;;;;;;5073340;28;20025;-85
2021/09/26 04:19:09;;;;;;;8.07;4.72;;;16.30;99.90;;;;;;5055041;28;20040;-85
2021/09/26 04:21:34;;;;;;;6.18;5.03;;;16.30;99.90;;;;;;5055531;28;20035;-85
2021/09/26 04:24:00;;;;;;;7.93;5.50;;;16.30;99.90;;;;;;5055729;28;20028;-85
2021/09/26 04:26:26;;;;;;;9.35;5.78;;;16.30;99.90;;;;;;5055699;28;20074;-85
2021/09/26 04:28:52;;;;;;;7.63;5.40;;;16.30;99.90;;;;;;5055358;28;20032;-85
2021/09/26 04:31:17;;;;;;;8.13;5.18;;;16.30;99.90;;;;;;5072858;28;20490;-85
2021/09/26 04:33:43;;;;;;;8.93;5.22;;;16.30;99.90;;;;;;5055408;28;20051;-85
2021/09/26 04:36:09;;;;;;;7.63;5.35;;;16.40;99.90;;;;;;5055209;28;20037;-85
2021/09/26 04:38:35;;;;;;;8.60;5.95;;;16.40;99.90;;;;;;5055415;28;20032;-85
2021/09/26 04:41:01;;;;;;;7.55;5.03;;;16.40;99.90;;;;;;5054534;28;20615;-85
2021/09/26 04:43:27;;;;;;;7.35;5.30;;;16.40;99.90;;;;;;5055196;28;20485;-85
2021/09/26 04:45:52;;;;;;;8.32;5.57;;;16.40;99.90;;;;;;5055168;28;20021;-85
2021/09/26 04:48:21;;;;;;;7.57;5.85;;;16.40;99.90;;;;;;5055150;28;20404;-85
2021/09/26 04:50:47;;;;;;;6.97;5.43;;;16.40;99.90;;;;;;5054482;28;20048;-85
2021/09/26 04:53:13;;;;;;;6.97;4.97;;;16.30;99.90;;;;;;5054960;28;20094;-85
2021/09/26 04:55:39;;;;;;;6.97;5.22;;;16.40;99.90;;;;;;5054806;28;20497;-85
2021/09/26 04:58:06;;;;;;;7.75;5.50;;;16.40;99.90;;;;;;5054897;28;20105;-85
2021/09/26 05:00:35;;;;;;;7.30;5.30;;;16.40;99.90;;;;;;5054460;28;20028;-85
2021/09/26 05:03:01;;;;;;;7.57;5.65;;;16.40;99.90;;;;;;5054992;28;20047;-85
2021/09/26 05:05:26;;;;;;;7.43;5.40;;;16.40;99.90;;;;;;5055313;28;20153;-85
2021/09/26 05:07:52;;;;;;;8.10;5.13;;;16.40;99.90;;;;;;5073692;28;20097;-85
2021/09/26 05:10:18;;;;;;;6.72;4.90;;;16.40;99.90;;;;;;5055035;28;20123;-85
2021/09/26 05:12:43;;;;;;;7.25;5.30;;;16.40;99.90;;;;;;5055099;28;20035;-85
2021/09/26 05:15:10;;;;;;;7.82;5.20;;;16.50;99.90;;;;;;5072977;28;20029;-85
2021/09/26 05:17:36;;;;;;;8.38;5.13;;;16.40;99.90;;;;;;5054546;28;20512;-85
2021/09/26 05:20:03;;;;;;;8.95;5.95;;;16.50;99.90;;;;;;5072356;28;20021;-85
2021/09/26 05:22:28;;;;;;;7.75;5.47;;;16.50;99.90;;;;;;5054462;28;20086;-85
2021/09/26 05:24:54;;;;;;;7.13;5.05;;;16.50;99.90;;;;;;5054647;28;20025;-85
2021/09/26 05:27:21;;;;;;;8.43;5.88;;;16.50;99.90;;;;;;5072571;28;20037;-85
2021/09/26 05:29:46;;;;;;;7.40;5.00;;;16.50;99.90;;;;;;5053741;28;20029;-85
2021/09/26 05:32:12;;;;;;;8.30;5.40;;;16.50;99.90;;;;;;5072605;28;20025;-85
2021/09/26 05:34:38;;;;;;;6.45;5.15;;;16.50;99.90;;;;;;5054332;28;20416;-85
2021/09/26 05:37:04;;;;;;;9.10;5.45;;;16.50;99.90;;;;;;5054453;28;20028;-85
2021/09/26 05:39:31;;;;;;;7.05;5.30;;;16.50;99.90;;;;;;5054306;28;20482;-85
2021/09/26 05:41:58;;;;;;;7.28;5.22;;;16.50;99.90;;;;;;5054176;28;20155;-85
2021/09/26 05:44:24;;;;;;;7.03;5.40;;;16.50;99.90;;;;;;5054352;28;20495;-85
2021/09/26 05:46:50;;;;;;;9.25;6.57;;;16.50;99.90;;;;;;5072884;28;20025;-85
2021/09/26 05:49:15;;;;;;;9.73;6.28;;;16.60;99.90;;;;;;5053621;28;20388;-85
2021/09/26 05:51:41;;;;;;;10.93;7.70;;;16.60;99.90;;;;;;5072781;28;20471;-85
2021/09/26 05:54:07;;;;;;;10.15;6.85;;;16.60;99.90;;;;;;5076330;28;20103;-85
2021/09/26 05:56:32;;;;;;;8.98;6.97;;;16.60;99.90;;;;;;5059160;28;20119;-86
2021/09/26 05:58:58;;;;;;;11.98;7.85;;;16.60;99.90;;;;;;5057833;28;20064;-85
2021/09/26 06:01:23;;;;;;;10.07;7.47;;;16.60;99.90;;;;;;5058387;28;20115;-85
2021/09/26 06:03:49;;;;;;;10.13;6.95;;;16.60;99.90;;;;;;5076216;28;20465;-85
2021/09/26 06:06:15;;;;;;;8.45;6.72;;;16.60;99.90;;;;;;5076416;28;20094;-85
2021/09/26 06:08:40;;;;;;;9.27;6.28;;;16.60;99.90;;;;;;5058694;28;20070;-85
2021/09/26 06:11:06;;;;;;;7.65;5.57;;;16.60;99.90;;;;;;5057677;28;20392;-85
2021/09/26 06:13:32;;;;;;;7.78;5.50;;;16.70;99.90;;;;;;5060658;28;20056;-85
2021/09/26 06:15:59;;;;;;;9.07;6.22;;;16.70;99.90;;;;;;5058751;28;20060;-85
2021/09/26 06:18:25;;;;;;;10.20;5.90;;;16.70;99.90;;;;;;5079955;28;20024;-85
2021/09/26 06:20:51;;;;;;;7.55;5.90;;;16.70;99.90;;;;;;5060815;28;20185;-85
2021/09/26 06:23:17;;;;;;;7.47;5.97;;;16.70;99.90;;;;;;5059713;28;20074;-85
2021/09/26 06:25:43;;;;;;;7.47;5.40;;;16.70;99.90;;;;;;5059612;28;20029;-85
2021/09/26 06:28:09;;;;;;;8.40;6.00;;;16.70;99.90;;;;;;5059683;28;20139;-85
2021/09/26 06:30:36;;;;;;;7.57;5.80;;;16.70;99.90;;;;;;5060475;28;20032;-85
2021/09/26 06:33:03;;;;;;;6.88;5.43;;;16.80;99.90;;;;;;5079405;28;20108;-85
2021/09/26 06:35:29;;;;;;;6.32;5.38;;;16.80;99.90;;;;;;5078977;28;20103;-84
2021/09/26 06:37:55;;;;;;;9.60;5.70;;;16.80;99.90;;;;;;5060539;28;20024;-85
2021/09/26 06:40:21;;;;;;;6.80;5.10;;;16.80;99.90;;;;;;5056735;28;20021;-85
2021/09/26 06:42:47;;;;;;;8.00;5.75;;;16.80;99.90;;;;;;5057314;28;20024;-85
2021/09/26 06:45:13;;;;;;;7.72;6.32;;;16.80;99.90;;;;;;5057274;28;20032;-85
2021/09/26 06:47:39;;;;;;;8.48;5.85;;;16.90;99.90;;;;;;5057291;28;20029;-84
2021/09/26 06:50:07;;;;;;;8.70;6.00;;;16.90;99.90;;;;;;5056617;28;20035;-85
2021/09/26 06:52:32;;;;;;;7.47;5.97;;;16.90;99.90;;;;;;5057169;28;20419;-85
2021/09/26 06:54:58;;;;;;;9.57;6.57;;;16.90;99.90;;;;;;5057123;28;20135;-85
2021/09/26 06:57:23;;;;;;;14.38;9.70;;;16.90;99.90;;;;;;5057213;28;20476;-85
2021/09/26 06:59:49;;;;;;;12.75;9.52;;;16.90;99.90;;;;;;5056545;28;20469;-85
2021/09/26 07:02:21;;;;;;;11.75;8.65;;;16.90;99.90;;;;;;5074775;28;20500;-85
2021/09/26 07:04:51;;;;;;;10.82;7.93;;;16.90;99.90;;;;;;5056821;28;20056;-85
2021/09/26 07:07:19;;;;;;;10.15;7.43;;;17.00;99.90;;;;;;5074994;28;20072;-85
2021/09/26 07:09:48;;;;;;;9.27;7.10;;;17.00;99.90;;;;;;5056337;28;20431;-85
2021/09/26 07:12:15;;;;;;;8.52;6.80;;;17.00;99.90;;;;;;5056977;28;20431;-85
2021/09/26 07:14:41;;;;;;;8.40;6.63;;;17.10;99.90;;;;;;5056729;28;20127;-86
2021/09/26 07:17:07;;;;;;;7.43;6.20;;;17.10;99.90;;;;;;5075154;28;20681;-85
2021/09/26 07:19:32;;;;;;;9.25;6.90;;;17.10;99.90;;;;;;5074307;28;20035;-85
2021/09/26 07:21:58;;;;;;;9.45;6.45;;;17.20;99.90;;;;;;5056488;28;20016;-85
2021/09/26 07:24:24;;;;;;;7.85;6.30;;;17.20;99.90;;;;;;5074427;28;20025;-85
2021/09/26 07:26:50;;;;;;;9.48;6.60;;;17.20;99.90;;;;;;5056737;28;20022;-85
2021/09/26 07:29:15;;;;;;;8.20;6.32;;;17.20;99.90;;;;;;5055990;28;20385;-85
2021/09/26 07:31:41;;;;;;;7.65;6.05;;;17.30;99.90;;;;;;5056300;28;20024;-85
2021/09/26 07:34:07;;;;;;;8.73;6.82;;;17.30;99.90;;;;;;5074355;28;20021;-85
2021/09/26 07:36:33;;;;;;;10.43;6.03;;;17.30;99.90;;;;;;5056066;28;20033;-85
2021/09/26 07:38:59;;;;;;;7.28;5.70;;;17.40;99.90;;;;;;5055495;28;20037;-84
2021/09/26 07:41:25;;;;;;;8.85;7.18;;;17.40;99.90;;;;;;5056007;28;20081;-85
2021/09/26 07:43:51;;;;;;;9.90;7.28;;;17.40;99.90;;;;;;5073879;28;20392;-85
2021/09/26 07:46:16;;;;;;;12.68;8.23;;;17.50;99.90;;;;;;5055669;28;20021;-85
2021/09/26 07:48:42;;;;;;;13.43;8.25;;;17.60;99.90;;;;;;5073946;28;20103;-85
2021/09/26 07:51:08;;;;;;;10.80;7.55;;;17.60;99.90;;;;;;5055367;28;20087;-85
2021/09/26 07:53:34;;;;;;;9.95;7.43;;;17.60;99.90;;;;;;5055832;28;20086;-85
2021/09/26 07:56:00;;;;;;;9.88;7.40;;;17.60;99.90;;;;;;5056065;28;20032;-85
2021/09/26 07:58:27;;;;;;;9.90;7.25;;;17.60;99.90;;;;;;5073775;28;20028;-85
2021/09/26 08:00:54;;;;;;;8.48;6.57;;;17.60;99.90;;;;;;5055025;28;20032;-85
2021/09/26 08:03:19;;;;;;;9.65;7.10;;;17.60;99.90;;;;;;5055671;28;20119;-85
2021/09/26 08:05:45;;;;;;;10.55;6.85;;;17.60;99.90;;;;;;5055760;28;20096;-85
2021/09/26 08:08:11;;;;;;;9.40;7.22;;;17.60;99.90;;;;;;5073542;28;20063;-85
2021/09/26 08:10:36;;;;;;;8.40;6.63;;;17.60;99.90;;;;;;5073031;28;20520;-85
2021/09/26 08:13:03;;;;;;;9.75;6.75;;;17.60;99.90;;;;;;5055466;28;20086;-85
2021/09/26 08:15:28;;;;;;;9.48;7.45;;;17.60;99.90;;;;;;5054750;28;20038;-85
2021/09/26 08:17:54;;;;;;;11.43;7.78;;;17.60;99.90;;;;;;5055354;28;20032;-85
2021/09/26 08:20:20;;;;;;;8.82;6.93;;;17.70;99.90;;;;;;5072655;28;20028;-85
2021/09/26 08:22:46;;;;;;;9.90;7.15;;;17.70;99.90;;;;;;5055285;28;20120;-85
2021/09/26 08:25:13;;;;;;;9.77;7.03;;;17.70;99.90;;;;;;5055319;28;20477;-85
2021/09/26 08:27:40;;;;;;;10.82;7.35;;;17.70;99.90;;;;;;5073496;28;20073;-85
2021/09/26 08:30:08;;;;;;;8.80;7.28;;;17.80;99.90;;;;;;5054613;28;20094;-85
2021/09/26 08:32:39;;;;;;;10.25;7.32;;;17.90;99.90;;;;;;5055334;28;20024;-85
2021/09/26 08:35:06;;;;;;;9.90;7.65;;;17.90;99.90;;;;;;5078349;22;20579;-85
2021/09/26 08:37:32;;;;;;;9.73;6.88;;;18.00;99.90;;;;;;5074799;28;20033;-86
2021/09/26 08:39:58;;;;;;;8.98;7.45;;;18.00;99.90;;;;;;5055431;28;20067;-86
2021/09/26 08:42:24;;;;;;;9.75;7.32;;;18.00;99.90;;;;;;5055617;28;20025;-86
2021/09/26 08:44:50;;;;;;;9.45;7.15;;;17.90;99.90;;;;;;5055279;28;20048;-86
2021/09/26 08:47:17;;;;;;;10.80;7.20;;;18.00;99.90;;;;;;5055092;28;20533;-85
2021/09/26 08:49:44;;;;;;;12.25;8.77;;;17.90;99.90;;;;;;5054912;28;20473;-86
2021/09/26 08:52:10;;;;;;;11.65;9.05;;;18.00;99.90;;;;;;5074173;28;20035;-85
2021/09/26 08:54:35;;;;;;;11.10;7.80;;;18.00;99.90;;;;;;5073325;28;20041;-85
2021/09/26 08:57:01;;;;;;;11.60;8.20;;;18.10;99.90;;;;;;5055301;28;20401;-85
2021/09/26 08:59:27;;;;;;;12.02;8.32;;;18.10;99.90;;;;;;5072567;28;20485;-85
2021/09/26 09:01:52;;;;;;;11.57;8.13;;;18.20;99.90;;;;;;5054963;28;20516;-85
2021/09/26 09:04:36;;;;;;;11.43;8.32;;;18.30;99.90;;;;;;5073082;28;20020;-85
2021/09/26 09:07:04;;;;;;;9.63;7.40;;;18.30;99.90;;;;;;5073516;28;20025;-85
2021/09/26 09:09:31;;;;;;;11.07;8.48;;;18.40;99.90;;;;;;5055234;28;20522;-85
2021/09/26 09:12:03;;;;;;;10.88;7.55;;;18.40;99.90;;;;;;5056828;28;20044;-85
2021/09/26 09:14:53;;;;;;;10.63;7.65;;;18.40;99.90;;;;;;5055670;28;20020;-86
2021/09/26 09:17:39;;;;;;;9.25;7.68;;;18.40;99.90;;;;;;5072964;28;20481;-85
2021/09/26 09:20:23;;;;;;;11.68;7.50;;;18.50;99.90;;;;;;5055854;28;20016;-86
2021/09/26 09:22:52;;;;;;;10.80;7.63;;;18.50;99.90;;;;;;5054452;28;20028;-86
2021/09/26 09:25:37;;;;;;;9.90;7.65;;;18.60;99.90;;;;;;5073325;28;20040;-85
2021/09/26 09:28:06;;;;;;;11.70;8.00;;;18.60;99.90;;;;;;5054712;28;20062;-85
2021/09/26 09:30:39;;;;;;;9.30;7.10;;;18.60;99.90;;;;;;5072457;28;20477;-85
2021/09/26 09:33:06;;;;;;;10.68;8.00;;;18.70;99.90;;;;;;5054456;28;20028;-85
2021/09/26 09:35:49;;;;;;;13.55;7.20;;;18.70;99.90;;;;;;5072604;28;20032;-85
2021/09/26 09:38:37;;;;;;;11.32;7.13;;;18.80;99.90;;;;;;5054903;28;20051;-85
2021/09/26 09:41:03;;;;;;;9.05;7.07;;;18.90;99.90;;;;;;5053815;28;20039;-85
2021/09/26 09:43:29;;;;;;;10.82;5.78;;;18.90;99.90;;;;;;5073182;28;20431;-85
2021/09/26 09:46:02;;;;;;;9.30;6.75;;;19.00;99.90;;;;;;5073381;28;20021;-86
2021/09/26 09:48:30;;;;;;;10.25;6.70;;;19.00;99.90;;;;;;5073691;28;20481;-85
2021/09/26 09:51:04;;;;;;;11.50;6.85;;;19.00;99.90;;;;;;5055497;28;20051;-85
2021/09/26 09:53:36;;;;;;;11.18;6.35;;;19.10;99.90;;;;;;5079794;28;20032;-86
2021/09/26 09:56:15;;;;;;;8.45;6.30;;;19.10;99.90;;;;;;5057465;28;20396;-86
2021/09/26 09:58:46;;;;;;;8.25;6.10;;;19.20;99.90;;;;;;5057741;28;20020;-86
2021/09/26 10:01:15;;;;;;;11.30;6.60;;;19.30;99.90;;;;;;5075515;28;20023;-86
2021/09/26 10:03:42;;;;;;;9.23;6.30;;;19.30;99.90;;;;;;5075632;28;20029;-85
2021/09/26 10:06:35;;;;;;;8.50;6.13;;;19.50;99.90;;;;;;5056431;28;20067;-86
2021/09/26 10:09:22;;;;;;;8.25;6.10;;;19.50;99.90;;;;;;5075280;28;20032;-86
2021/09/26 10:11:52;;;;;;;10.10;5.90;;;19.50;99.90;;;;;;5073483;28;20025;-86
2021/09/26 10:14:20;;;;;;;9.40;6.82;;;19.50;99.90;;;;;;5074790;28;20031;-85
2021/09/26 10:16:46;;;;;;;9.02;6.20;;;19.60;99.90;;;;;;5075070;28;20040;-86
2021/09/26 10:19:13;;;;;;;9.73;6.25;;;19.60;99.90;;;;;;5058454;28;20512;-85
2021/09/26 10:21:39;;;;;;;8.60;6.28;;;19.60;99.90;;;;;;5076368;28;20084;-86
2021/09/26 10:24:06;;;;;;;9.65;5.75;;;19.60;99.90;;;;;;5057816;28;20137;-86
2021/09/26 10:26:33;;;;;;;7.47;6.00;;;19.60;99.90;;;;;;5075006;28;20066;-86
2021/09/26 10:29:00;;;;;;;10.07;6.72;;;19.70;99.90;;;;;;5055996;28;20562;-86
2021/09/26 10:31:29;;;;;;;10.90;6.10;;;19.70;99.90;;;;;;5072982;28;20064;-85
2021/09/26 10:33:57;;;;;;;9.48;6.03;;;19.80;99.90;;;;;;5054309;28;20024;-85
2021/09/26 10:36:24;;;;;;;7.68;5.68;;;19.90;99.90;;;;;;5072251;28;20037;-86
2021/09/26 10:38:51;;;;;;;9.82;5.50;;;19.90;99.90;;;;;;5078000;28;20021;-85
2021/09/26 10:41:18;;;;;;;9.32;5.10;;;19.90;99.90;;;;;;5061126;28;20032;-86
2021/09/26 10:43:44;;;;;;;8.40;5.25;;;20.00;99.90;;;;;;5059774;28;20020;-86
2021/09/26 10:46:24;;;;;;;8.85;6.07;;;20.00;99.90;;;;;;5058777;28;20028;-86
2021/09/26 10:49:14;;;;;;;8.15;5.20;;;20.00;99.90;;;;;;5059669;28;20020;-85
2021/09/26 10:51:47;;;;;;;6.57;4.80;;;20.10;99.90;;;;;;5078031;28;20054;-86
2021/09/26 10:54:22;;;;;;;9.40;5.90;;;20.10;99.90;;;;;;5078001;28;20028;-85
2021/09/26 10:56:49;;;;;;;10.75;6.20;;;20.10;99.90;;;;;;5059082;28;20115;-85
2021/09/26 10:59:14;;;;;;;10.50;4.70;;;20.10;99.90;;;;;;5059177;28;20040;-86
2021/09/26 11:01:40;;;;;;;6.53;4.70;;;20.10;99.90;;;;;;5059130;28;20029;-86
2021/09/26 11:04:11;;;;;;;7.32;4.30;;;20.20;99.90;;;;;;5077021;28;20465;-85
2021/09/26 11:06:36;;;;;;;7.57;4.10;;;20.30;99.90;;;;;;5059238;28;20420;-85
2021/09/26 11:09:07;;;;;;;7.72;3.70;;;20.40;99.90;;;;;;5076590;28;20031;-85
2021/09/26 11:11:43;;;;;;;6.20;3.67;;;20.50;99.90;;;;;;5059139;28;20024;-86
2021/09/26 11:14:10;;;;;;;7.20;4.30;;;20.50;99.90;;;;;;5076012;28;20445;-86
2021/09/26 11:16:50;;;;;;;6.30;4.05;;;20.50;99.90;;;;;;5058573;28;20047;-85
2021/09/26 11:19:16;;;;;;;9.98;6.43;;;20.50;99.90;;;;;;5075834;28;20025;-85
2021/09/26 11:21:42;;;;;;;7.25;4.50;;;20.50;99.90;;;;;;5058719;28;20025;-86
2021/09/26 11:24:18;;;;;;;8.95;3.97;;;20.60;99.90;;;;;;5059442;28;20388;-85
2021/09/26 11:27:07;;;;;;;6.72;4.10;;;20.70;99.90;;;;;;5059526;28;20484;-86
2021/09/26 11:29:39;;;;;;;7.18;4.13;;;20.70;99.90;;;;;;5058319;28;20025;-86
2021/09/26 11:32:19;;;;;;;7.75;4.47;;;20.70;99.90;;;;;;5075200;28;20052;-85
2021/09/26 11:34:48;;;;;;;6.47;3.72;;;20.70;99.90;;;;;;5074935;28;20127;-85
2021/09/26 11:37:14;;;;;;;6.05;3.83;;;20.90;99.90;;;;;;5056493;28;20025;-86
2021/09/26 11:39:49;;;;;;;7.95;3.60;;;20.90;99.90;;;;;;5074199;28;20059;-85
2021/09/26 11:42:28;;;;;;;6.22;2.72;;;20.90;99.90;;;;;;5056690;28;20142;-86
2021/09/26 11:44:58;;;;;;;3.67;2.47;;;21.10;99.90;;;;;;5057683;28;20021;-86
2021/09/26 11:47:24;;;;;;;9.02;2.85;;;21.10;99.90;;;;;;5057018;28;20377;-85
2021/09/26 11:49:50;;;;;;;6.13;3.13;;;21.10;99.90;;;;;;5072572;28;20030;-85
2021/09/26 11:52:19;;;;;;;7.10;2.80;;;21.10;99.90;;;;;;5074008;28;20099;-86
2021/09/26 11:54:46;;;;;;;8.20;2.97;;;21.20;99.90;;;;;;5055629;28;20067;-85
2021/09/26 11:57:12;;;;;;;5.95;2.70;;;21.30;99.90;;;;;;5055781;28;20031;-85
2021/09/26 11:59:40;;;;;;;5.03;2.53;;;21.30;99.60;;;;;;5071777;28;20025;-86
2021/09/26 12:02:13;;;;;;;6.00;2.42;;;21.40;99.70;;;;;;5056125;28;20171;-86
2021/09/26 12:04:40;;;;;;;5.18;2.47;;;21.50;99.30;;;;;;5074196;28;20021;-85
2021/09/26 12:07:06;;;;;;;5.78;2.50;;;21.50;98.50;;;;;;5074787;28;20032;-85
2021/09/26 12:09:40;;;;;;;4.95;2.38;;;21.50;98.30;;;;;;5074259;28;20095;-85
2021/09/26 12:12:14;;;;;;;4.78;2.38;;;21.50;98.70;;;;;;5073678;28;20025;-86
2021/09/26 12:14:42;;;;;;;6.57;2.63;;;21.40;98.80;;;;;;5055554;28;20038;-85
2021/09/26 12:17:12;;;;;;;3.30;2.08;;;21.40;98.60;;;;;;5055351;28;20021;-85
2021/09/26 12:19:38;;;;;;;4.25;2.33;;;21.30;98.70;;;;;;5055035;28;20024;-86
2021/09/26 12:22:09;;;;;;;5.30;2.50;;;21.20;98.80;;;;;;5055445;28;20120;-85
2021/09/26 12:24:44;;;;;;;6.00;2.90;;;21.20;98.80;;;;;;5055624;28;20028;-85
2021/09/26 12:27:25;;;;;;;4.45;2.30;;;21.20;99.10;;;;;;5055301;28;20582;-85
2021/09/26 12:30:16;;;;;;;6.32;2.47;;;21.20;99.50;;;;;;5057907;28;20032;-86
2021/09/26 12:33:14;;;;;;;3.55;2.28;;;21.20;99.50;;;;;;5063492;28;20024;-86
2021/09/26 12:35:59;;;;;;;5.78;2.28;;;21.10;99.60;;;;;;5061766;28;20032;-85
2021/09/26 12:38:40;;;;;;;5.78;2.97;;;21.10;99.60;;;;;;5077982;28;20029;-85
2021/09/26 12:41:07;;;;;;;4.35;2.20;;;21.20;99.40;;;;;;5072865;28;20100;-85
2021/09/26 12:43:39;;;;;;;4.78;2.13;;;21.20;99.50;;;;;;5055417;28;20512;-85
2021/09/26 12:46:07;;;;;;;4.72;2.72;;;21.20;99.60;;;;;;5055697;28;20020;-86
2021/09/26 12:48:33;;;;;;;5.00;2.40;;;21.20;99.80;;;;;;5073076;28;20027;-86
2021/09/26 12:51:04;;;;;;;7.25;2.83;;;21.10;99.90;;;;;;5071750;28;20025;-85
2021/09/26 12:53:33;;;;;;;6.00;2.78;;;21.20;99.90;;;;;;5072731;28;20412;-86